Startpagina
METAR-TAF:

METAR-TAF

Vliegvelden :

Hévíz-Balaton Airport

Hévíz, Hongarije

breedte: 46-41-11N, lengte: 017-09-33E, hoogte: 124 m

Actueel weer

Dit bericht is 38 minuten geleden gemaakt, om 13:45 UTC
Wind 4 kt uit het noordnoordoosten
Temperatuur 30°C
Vochtigheid 46%
Druk 1018 hPa
Zicht 10 km of meer
Weinig wolken op 5000 ft, Stapelwolken.

METAR: LHSM 181345Z 03004KT 9999 FEW050TCU 30/17 Q1018 NOSIG

Tijdstip: 16:23 (14:23 UTC)

Verwachting

Dit bericht is 3 uur en het 8 minuten geleden gemaakt, om 11:15 UTC
Verwachting geldig van 18 om 12 UTC tot 18 om 21 UTC
Wind 3 kt uit variabele richting
Zicht 10 km of meer
Verspreide wolken op 6000 ft, Stapelwolken.
Wijzigt naar
van 18 om 14 UTC tot 18 om 17 UTC
Zicht 10 km of meer
geen wolken onder 1500 m en geen cumulonimbus

TAF: LHSM 181115Z 1812/1821 VRB03KT 9999 SCT060TCU BECMG 1814/1817 CAVOK

Waarnemingen en weersverwachtingen van meer dan 4000 vliegvelden (METAR en TAF).

De beschikbare stations zijn de gele en rode punten op de kaart.

Ga met uw muis naar het station om de naam te zien.

Klik dan om waarnemingen en weersverwachtingen te zien.

kaart wijzigen: klik op de groene knoppen met een zwart kruis om in te zoomen, op de groene knop met een streepje om uit te zoomen of op de groene pijlen voor aangrenzende kaarten.


METAR-TAF: